• Join FlightAware (Why Join?)
  • Login
  • US Flag 
01:27AM EDT


 

Airport Tracker/Info


-or-


 

Live Flight TrackerFlight Track Log ✈ AFL150 ✈ 28-Oct-2013 ✈ UUEE / SVO - MUHA / HAV

Flight Track Log - Related Links

Times and Time Zones

All times are in EDT time to prevent confusion due to time zone crossing. See the AFL150 flight status page for this flight to view local times or setup timezone preferences in your user account.

Time Position Orientation Groundspeed Altitude Reporting Facility
EDT Latitude Longitude Course Direction KTS MPH feet Rate Location/Type
05:15AM 55.9610 37.3390 259° West 191 220 2,700  Level FlightAware
05:16AM 55.9570 37.2990 260° West 200 230 3,600 1,860 Climbing FlightAware
05:17AM 55.9490 37.2210 260° West 231 266 4,900 1,860 Climbing FlightAware
05:17AM 55.9490 37.1510 270° West 260 299 6,100 2,100 Climbing FlightAware
05:18AM 55.9570 37.0730 280° West 279 321 7,400 2,400 Climbing FlightAware
05:18AM 55.9650 36.9920 280° West 291 335 8,900 2,700 Climbing FlightAware
05:19AM 55.9760 36.8980 282° West 298 343 10,800 2,220 Climbing FlightAware
05:20AM 56.0010 36.8080 296° West 324 373 11,900 1,740 Climbing FlightAware
05:20AM 56.0230 36.7180 294° West 347 399 13,000 2,220 Climbing FlightAware
05:21AM 56.0560 36.5990 296° West 359 413 14,900 2,220 Climbing FlightAware
05:22AM 56.0850 36.5260 305° West 379 436 15,800 1,860 Climbing FlightAware
05:22AM 56.1270 36.4710 324° Northwest 392 451 16,800 2,100 Climbing FlightAware
05:23AM 56.1770 36.4230 332° Northwest 403 464 17,900 2,100 Climbing FlightAware
05:23AM 56.2360 36.3700 333° Northwest 411 473 19,100 2,100 Climbing FlightAware
05:24AM 56.3130 36.3000 333° Northwest 417 480 20,700 1,980 Climbing FlightAware
05:24AM 56.3750 36.2440 333° Northwest 423 487 21,800 1,800 Climbing FlightAware
05:25AM 56.4340 36.1900 333° Northwest 428 493 22,800 1,680 Climbing FlightAware
05:26AM 56.4980 36.1320 333° Northwest 434 499 23,800 1,560 Climbing FlightAware
05:26AM 56.5510 36.0830 333° Northwest 440 506 24,500 1,500 Climbing FlightAware
05:27AM 56.6240 36.0150 333° Northwest 446 513 25,600 1,500 Climbing FlightAware
05:27AM 56.6980 35.9460 333° Northwest 454 522 26,500 1,320 Climbing FlightAware
05:28AM 56.7640 35.8850 333° Northwest 457 526 27,300 1,440 Climbing FlightAware
05:29AM 56.8300 35.8240 333° Northwest 460 529 28,200 1,440 Climbing FlightAware
05:29AM 56.9050 35.7530 333° Northwest 462 532 29,100 1,440 Climbing FlightAware
05:30AM 56.9720 35.6890 333° Northwest 460 529 30,000 780 Climbing FlightAware
05:30AM 57.0270 35.6380 333° Northwest 462 532 30,000  Level FlightAware
05:31AM 57.0940 35.5740 333° Northwest 462 532 30,000  Level FlightAware
05:32AM 57.1990 35.4730 332° Northwest 464 534 30,000  Level FlightAware
05:33AM 57.2760 35.3990 333° Northwest 467 537 30,000  Level FlightAware
05:33AM 57.3620 35.3160 333° Northwest 468 539 30,000  Level FlightAware
05:34AM 57.4290 35.2510 332° Northwest 468 539 30,000  Level FlightAware
05:35AM 57.5060 35.1760 332° Northwest 469 540 30,000  Level FlightAware
05:35AM 57.5620 35.1210 332° Northwest 468 539 30,000  Level FlightAware
05:36AM 57.6390 35.0450 332° Northwest 468 539 30,000  Level FlightAware
05:36AM 57.7050 34.9770 331° Northwest 465 535 30,000  Level FlightAware
05:37AM 57.7640 34.9020 326° Northwest 461 531 30,000  Level FlightAware
05:38AM 57.8610 34.7680 324° Northwest 460 529 30,000  Level FlightAware
05:38AM 57.9210 34.6850 324° Northwest 461 531 30,000  Level FlightAware
05:39AM 57.9890 34.5910 324° Northwest 460 529 30,000  Level FlightAware
05:40AM 58.0480 34.5080 323° Northwest 461 531 30,000  Level FlightAware
05:40AM 58.1090 34.4220 323° Northwest 461 531 30,000  Level FlightAware
05:41AM 58.1770 34.3260 323° Northwest 460 529 30,000  Level FlightAware
05:41AM 58.2260 34.2510 321° Northwest 459 528 30,000  Level FlightAware
05:42AM 58.2950 34.1400 320° Northwest 459 528 30,000  Level FlightAware
05:43AM 58.3450 34.0610 320° Northwest 459 528 30,000  Level FlightAware
05:43AM 58.3940 33.9810 319° Northwest 459 528 30,000  Level FlightAware
05:44AM 58.4440 33.9010 320° Northwest 459 528 30,000  Level FlightAware
05:45AM 58.4940 33.8210 320° Northwest 459 528 30,000  Level FlightAware
05:45AM 58.6100 33.6570 324° Northwest 466 536 30,000  Level FlightAware
05:46AM 58.6970 33.5170 320° Northwest 466 536 30,000  Level FlightAware
05:47AM 58.7480 33.4350 320° Northwest 466 536 30,000  Level FlightAware
05:47AM 58.7830 33.3780 320° Northwest 466 536 30,000  Level FlightAware
05:48AM 58.8790 33.1840 314° West 465 535 30,000  Level FlightAware
05:49AM 58.9260 33.0920 315° West 465 535 30,000  Level FlightAware
05:49AM 58.9780 32.9900 315° West 465 535 30,000  Level FlightAware
05:50AM 59.0280 32.8930 315° West 466 536 30,000  Level FlightAware
05:50AM 59.0870 32.7760 314° West 467 537 30,000  Level FlightAware
05:51AM 59.1610 32.6300 315° West 468 539 30,000  Level FlightAware
05:52AM 59.2040 32.5450 315° West 470 541 30,000  Level FlightAware
05:53AM 59.2800 32.3910 314° West 471 542 30,000  Level FlightAware
05:54AM 59.3690 32.2110 314° West 471 542 30,000  Level FlightAware
05:55AM 59.4600 31.9950 310° West 456 525 30,000  Level FlightAware
05:55AM 59.4780 31.8610 285° West 429 494 30,000  Level FlightAware
05:56AM 59.4940 31.5910 277° West 437 503 30,000  Level FlightAware
05:57AM 59.5080 31.4150 279° West 436 502 30,000  Level FlightAware
05:58AM 59.5180 31.2570 277° West 435 501 30,000  Level FlightAware
05:58AM 59.5260 31.1010 276° West 435 501 30,000  Level FlightAware
05:59AM 59.5340 30.9210 275° West 435 501 30,000  Level FlightAware
06:00AM 59.5450 30.6810 275° West 435 501 30,000  Level FlightAware
06:01AM 59.5520 30.5020 274° West 434 499 30,000  Level FlightAware
06:02AM 59.5640 30.2270 275° West 433 498 30,000  Level FlightAware
06:03AM 59.5680 30.1090 274° West 433 498 30,000  Level FlightAware
06:03AM 59.5740 29.9660 275° West 431 496 30,000  Level FlightAware
06:04AM 59.5790 29.8070 274° West 429 494 30,000  Level FlightAware
06:05AM 59.5890 29.5440 274° West 428 493 30,000  Level FlightAware
06:06AM 59.5970 29.2850 274° West 428 493 30,000  Level FlightAware
06:07AM 59.6020 29.1480 274° West 427 491 30,000  Level FlightAware
06:07AM 59.6060 29.0150 273° West 428 493 30,000  Level FlightAware
06:08AM 59.6100 28.8630 273° West 429 494 30,000  Level FlightAware
06:09AM 59.6240 28.6980 280° West 441 507 30,000  Level FlightAware
06:09AM 59.6470 28.5340 286° West 443 510 30,000  Level FlightAware
06:10AM 59.6690 28.3880 287° West 443 510 30,000  Level FlightAware
06:11AM 59.6870 28.2620 286° West 443 510 30,000  Level FlightAware
06:11AM 59.7170 28.0520 286° West 442 509 30,000  Level FlightAware
06:12AM 59.7340 27.9340 286° West 441 507 30,000  Level FlightAware
06:13AM 59.7550 27.7770 285° West 440 506 30,000  Level FlightAware
06:14AM 59.7900 27.5240 285° West 438 504 30,000  Level FlightAware
06:14AM 59.8070 27.4050 286° West 437 503 30,000  Level FlightAware
06:15AM 59.8280 27.2480 285° West 437 503 30,000  Level FlightAware
06:16AM 59.8490 27.0880 285° West 436 502 30,000  Level FlightAware
06:16AM 59.8690 26.9360 285° West 434 499 30,000  Level FlightAware
06:17AM 59.8870 26.8040 285° West 432 497 30,000  Level FlightAware
06:17AM 59.9030 26.6780 284° West 432 497 30,000  Level FlightAware
06:18AM 59.9370 26.4130 284° West 428 493 30,000  Level FlightAware
06:20AM 59.9720 26.1560 285° West 427 491 30,000  Level FlightAware
06:20AM 60.0100 26.0530 306° West 434 499 30,000  Level FlightAware
06:21AM 60.0410 25.9420 299° West 424 488 30,000  Level FlightAware
06:22AM 60.1080 25.7100 300° West 425 489 30,000  Level FlightAware
06:22AM 60.1370 25.6160 302° West 426 490 30,000  Level FlightAware
06:23AM 60.1760 25.4910 302° West 425 489 30,000  Level FlightAware
06:23AM 60.2080 25.3880 302° West 424 488 30,000  Level FlightAware
06:25AM 60.2720 25.1740 301° West 423 487 30,000  Level FlightAware
06:25AM 60.3060 25.0610 301° West 424 488 30,000  Level FlightAware
06:26AM 60.3560 24.9360 309° West 435 501 30,000  Level FlightAware
06:26AM 60.4140 24.8560 326° Northwest 441 507 30,000  Level FlightAware
06:27AM 60.4760 24.7810 329° Northwest 440 506 30,000  Level FlightAware
06:28AM 60.5470 24.6940 329° Northwest 440 506 30,000  Level FlightAware
06:28AM 60.6060 24.6200 328° Northwest 439 505 30,000  Level FlightAware
06:29AM 60.6670 24.5430 328° Northwest 439 505 30,000  Level FlightAware
06:30AM 60.7710 24.4100 328° Northwest 441 507 30,000  Level FlightAware
06:30AM 60.8350 24.3290 328° Northwest 441 507 30,000  Level FlightAware
06:31AM 60.9110 24.2320 328° Northwest 442 509 30,000  Level FlightAware
06:32AM 60.9890 24.1320 328° Northwest 446 513 30,000  Level FlightAware
06:33AM 61.1000 23.9870 328° Northwest 449 517 30,000  Level FlightAware
06:33AM 61.1500 23.9220 328° Northwest 450 518 30,000  Level FlightAware
06:34AM 61.2080 23.8450 327° Northwest 452 520 30,000  Level FlightAware
06:35AM 61.2700 23.7640 328° Northwest 453 521 30,000  Level FlightAware
06:35AM 61.3420 23.6680 327° Northwest 454 522 30,000  Level FlightAware
06:36AM 61.3820 23.6160 328° Northwest 454 522 30,000  Level FlightAware
06:36AM 61.4490 23.5370 331° Northwest 458 527 30,000  Level FlightAware
06:37AM 61.5040 23.4790 333° Northwest 457 526 30,000  Level FlightAware
06:37AM 61.5730 23.4060 333° Northwest 458 527 30,000  Level FlightAware
06:38AM 61.6560 23.3190 334° Northwest 459 528 30,000  Level FlightAware
06:39AM 61.7160 23.2540 333° Northwest 460 529 30,000  Level FlightAware
06:39AM 61.7830 23.1830 333° Northwest 461 531 30,000  Level FlightAware
06:40AM 61.8530 23.1080 333° Northwest 462 532 30,000  Level FlightAware
06:40AM 61.9240 23.0300 333° Northwest 463 533 30,000  Level FlightAware
06:41AM 62.0120 22.9340 333° Northwest 465 535 30,000  Level FlightAware
06:42AM 62.0710 22.8690 333° Northwest 466 536 30,000  Level FlightAware
06:42AM 62.1620 22.7700 333° Northwest 468 539 30,000  Level FlightAware
06:43AM 62.2330 22.6870 331° Northwest 464 534 30,000  Level FlightAware
06:44AM 62.3230 22.5250 320° Northwest 460 529 30,000  Level FlightAware
06:45AM 62.3880 22.4110 321° Northwest 462 532 30,000  Level FlightAware
06:45AM 62.4420 22.3190 322° Northwest 463 533 30,000  Level FlightAware
06:46AM 62.5080 22.2060 322° Northwest 461 531 30,000  Level FlightAware
06:47AM 62.5700 22.0910 320° Northwest 461 531 30,000  Level FlightAware
06:47AM 62.6410 21.9590 320° Northwest 460 529 30,000  Level FlightAware
06:48AM 62.7380 21.7790 320° Northwest 459 528 30,000  Level FlightAware
06:49AM 62.7940 21.6740 319° Northwest 458 527 30,000  Level FlightAware
06:50AM 62.9010 21.4730 319° Northwest 459 528 30,000  Level FlightAware
06:51AM 62.9640 21.3540 319° Northwest 460 529 30,000  Level FlightAware
06:51AM 63.0090 21.2660 318° Northwest 460 529 30,000  Level FlightAware
06:52AM 63.0620 21.1650 319° Northwest 460 529 30,000  Level FlightAware
06:52AM 63.1260 21.0410 319° Northwest 459 528 30,000  Level FlightAware
06:53AM 63.1900 20.9170 319° Northwest 460 529 30,000  Level FlightAware
06:54AM 63.2450 20.8100 319° Northwest 459 528 30,000  Level FlightAware
06:54AM 63.3100 20.6810 318° Northwest 460 529 30,000  Level FlightAware
06:55AM 63.3830 20.5370 319° Northwest 458 527 30,000  Level FlightAware
06:56AM 63.4440 20.4160 318° Northwest 455 524 30,000  Level FlightAware
06:56AM 63.5050 20.2930 318° Northwest 460 529 30,000  Level FlightAware
06:57AM 63.5630 20.1760 318° Northwest 462 532 30,000  Level FlightAware
06:57AM 63.6150 20.0700 318° Northwest 463 533 30,000  Level FlightAware
06:58AM 63.6510 19.9960 318° Northwest 463 533 30,000  Level FlightAware
06:59AM 63.7240 19.8470 318° Northwest 465 535 30,000  Level FlightAware
06:59AM 63.7960 19.6970 317° Northwest 464 534 30,000  Level FlightAware
07:00AM 63.8990 19.4840 318° Northwest 462 532 30,000  Level FlightAware
07:01AM 63.9470 19.3840 318° Northwest 462 532 30,000  Level FlightAware
07:02AM 64.0090 19.2520 317° Northwest 459 528 30,000  Level FlightAware
07:02AM 64.0640 19.1360 317° Northwest 458 527 30,000  Level FlightAware
07:03AM 64.1260 19.0040 317° Northwest 457 526 30,000  Level FlightAware
07:04AM 64.2170 18.8070 317° Northwest 455 524 30,000  Level FlightAware
07:05AM 64.2770 18.6780 317° Northwest 454 522 30,000  Level FlightAware
07:05AM 64.3380 18.5450 317° Northwest 454 522 30,000  Level FlightAware
07:06AM 64.3800 18.4520 316° Northwest 454 522 30,000  Level FlightAware
07:06AM 64.4430 18.3130 316° Northwest 454 522 30,000  Level FlightAware
07:07AM 64.5050 18.1760 316° Northwest 454 522 30,000  Level FlightAware
07:08AM 64.5490 18.0770 316° Northwest 454 522 30,000  Level FlightAware
07:08AM 64.5970 17.9680 316° Northwest 453 521 30,000  Level FlightAware
07:09AM 64.6460 17.8580 316° Northwest 453 521 30,000  Level FlightAware
07:09AM 64.7170 17.6970 316° Northwest 454 522 30,000  Level FlightAware
07:10AM 64.7770 17.5590 316° Northwest 454 522 30,000  Level FlightAware
07:11AM 64.8450 17.4030 316° Northwest 456 525 30,000  Level FlightAware
07:11AM 64.8960 17.2850 316° Northwest 457 526 30,000  Level FlightAware
07:12AM 64.9560 17.1440 315° West 458 527 30,000  Level FlightAware
07:13AM 65.0100 17.0170 315° West 458 527 30,000  Level FlightAware
07:14AM 65.1140 16.7720 315° West 458 527 30,000  Level FlightAware
07:14AM 65.1730 16.6310 315° West 458 527 30,000  Level FlightAware
07:15AM 65.2240 16.5080 315° West 458 527 30,000  Level FlightAware
07:16AM 65.2700 16.3970 315° West 459 528 30,000  Level FlightAware
07:16AM 65.3290 16.2530 315° West 458 527 30,000  Level FlightAware
07:17AM 65.3880 16.1090 315° West 458 527 30,000  Level FlightAware
07:17AM 65.4400 15.9810 314° West 451 519 30,000  Level FlightAware
07:18AM 65.4830 15.8720 314° West 450 518 30,000  Level FlightAware
07:19AM 65.5330 15.7480 314° West 449 517 30,000  Level FlightAware
07:19AM 65.6000 15.5810 314° West 447 514 30,000  Level FlightAware
07:20AM 65.6580 15.4340 314° West 447 514 30,000  Level FlightAware
07:21AM 65.7080 15.3060 314° West 448 516 30,000  Level FlightAware
07:21AM 65.7730 15.1390 314° West 450 518 30,000  Level FlightAware
07:22AM 65.8170 15.0260 314° West 451 519 30,000  Level FlightAware
07:23AM 65.8820 14.8580 313° West 453 521 30,000  Level FlightAware
07:23AM 65.9470 14.6870 313° West 455 524 30,000  Level FlightAware
07:24AM 65.9970 14.5550 313° West 457 526 30,000  Level FlightAware
07:24AM 66.0470 14.4220 313° West 458 527 30,000  Level FlightAware
07:25AM 66.1340 14.1900 313° West 459 528 30,000  Level FlightAware
07:26AM 66.1990 14.0140 313° West 461 531 30,000  Level FlightAware
07:27AM 66.2590 13.8500 312° West 460 529 30,000  Level FlightAware
07:27AM 66.3070 13.7190 312° West 460 529 30,000  Level FlightAware
07:28AM 66.3590 13.5760 312° West 461 531 30,000  Level FlightAware
07:29AM 66.4140 13.4230 312° West 460 529 30,000  Level FlightAware
07:29AM 66.4420 13.3440 312° West 460 529 30,000  Level FlightAware
07:30AM 66.5230 13.1170 312° West 466 536 30,000  Level FlightAware
07:31AM 66.5790 12.9560 311° West 467 537 30,000  Level FlightAware
07:31AM 66.6210 12.8350 311° West 467 537 30,000  Level FlightAware
07:32AM 66.6720 12.6890 311° West 469 540 30,000  Level FlightAware
07:32AM 66.7350 12.5070 311° West 468 539 30,000 180 Level FlightAware
07:33AM 66.7990 12.3200 311° West 465 535 30,300 600 Climbing FlightAware
07:34AM 66.8480 12.1750 311° West 455 524 30,800 960 Climbing FlightAware
07:35AM 66.9100 11.9920 311° West 456 525 31,600 840 Climbing FlightAware
07:35AM 66.9520 11.8650 310° West 460 529 31,900 300 Climbing FlightAware
07:36AM 67.0130 11.6820 311° West 469 540 32,000 60 Climbing FlightAware
07:36AM 67.0620 11.5350 311° West 462 532 32,000  Level FlightAware
07:37AM 67.1110 11.3850 310° West 464 534 32,000  Level FlightAware
07:38AM 67.1670 11.2110 310° West 464 534 32,000  Level FlightAware
07:38AM 67.2130 11.0640 309° West 464 534 32,000  Level FlightAware
07:39AM 67.2550 10.9320 309° West 464 534 32,000  Level FlightAware
07:39AM 67.2940 10.8070 309° West 464 534 32,000  Level FlightAware
07:40AM 67.3370 10.6680 309° West 464 534 32,000  Level FlightAware
07:42AM 67.4350 10.3540 309° West 464 534 32,000  Level FlightAware
07:42AM 67.4770 10.2170 309° West 464 534 32,000  Level FlightAware
07:43AM 67.5340 10.0350 309° West 464 534 32,000  Level FlightAware
07:44AM 67.5760 9.8980 309° West 464 534 32,000  Level FlightAware
07:44AM 67.6290 9.7270 309° West 464 534 32,000  Level FlightAware
07:45AM 67.6710 9.5890 309° West 464 534 32,000  Level FlightAware
07:46AM 67.7130 9.4540 309° West 464 534 32,000  Level FlightAware
07:46AM 67.7540 9.3190 309° West 464 534 32,000  Level FlightAware
07:47AM 67.7950 9.1840 309° West 464 534 32,000  Level FlightAware
07:47AM 67.8370 9.0490 310° West 464 534 32,000  Level FlightAware
07:48AM 67.8500 9.0040 307° West 464 534 32,000  Level FlightAware
07:51AM 67.9074 8.1361 280° West  Level Estimated
07:52AM 67.9257 7.8426 280° West  Level Estimated
07:53AM 67.9435 7.5487 279° West  Level Estimated
07:54AM 67.9607 7.2543 279° West  Level Estimated
07:55AM 67.9775 6.9594 279° West  Level Estimated
07:56AM 67.9937 6.6642 278° West  Level Estimated
07:57AM 68.0094 6.3685 278° West  Level Estimated
07:58AM 68.0245 6.0725 278° West  Level Estimated
07:59AM 68.0391 5.7761 278° West  Level Estimated
08:00AM 68.0532 5.4793 277° West  Level Estimated
08:01AM 68.0668 5.1821 277° West  Level Estimated
08:02AM 68.0798 4.8846 277° West  Level Estimated
08:03AM 68.0922 4.5868 277° West  Level Estimated
08:04AM 68.1042 4.2887 276° West  Level Estimated
08:05AM 68.1156 3.9902 276° West  Level Estimated
08:06AM 68.1265 3.6915 276° West  Level Estimated
08:07AM 68.1368 3.3925 275° West  Level Estimated
08:08AM 68.1466 3.0932 275° West  Level Estimated
08:09AM 68.1558 2.7937 275° West  Level Estimated
08:10AM 68.1645 2.4939 275° West  Level Estimated
08:11AM 68.1727 2.1940 274° West  Level Estimated
08:12AM 68.1803 1.8938 274° West  Level Estimated
08:13AM 68.1874 1.5934 274° West  Level Estimated
08:14AM 68.1939 1.2929 273° West  Level Estimated
08:15AM 68.1999 0.9922 273° West  Level Estimated
08:16AM 68.2054 0.6913 273° West  Level Estimated
08:17AM 68.2103 0.3903 273° West  Level Estimated
08:18AM 68.2146 0.0892 272° West  Level Estimated
08:19AM 68.2184 -0.2121 272° West  Level Estimated
08:20AM 68.2217 -0.5134 272° West  Level Estimated
08:21AM 68.2244 -0.8148 272° West  Level Estimated
08:22AM 68.2266 -1.1162 271° West  Level Estimated
08:23AM 68.2282 -1.4177 271° West  Level Estimated
08:24AM 68.2293 -1.7193 271° West  Level Estimated
08:25AM 68.2298 -2.0209 270° West  Level Estimated
08:26AM 68.2298 -2.3224 270° West  Level Estimated
08:27AM 68.2293 -2.6240 270° West  Level Estimated
08:28AM 68.2281 -2.9256 270° West  Level Estimated
08:29AM 68.2265 -3.2271 269° West  Level Estimated
08:30AM 68.2243 -3.5285 269° West  Level Estimated
08:31AM 68.2215 -3.8299 269° West  Level Estimated
08:32AM 68.2183 -4.1312 268° West  Level Estimated
08:33AM 68.2144 -4.4324 268° West  Level Estimated
08:34AM 68.2100 -4.7336 268° West  Level Estimated
08:35AM 68.2051 -5.0346 268° West  Level Estimated
08:36AM 68.1996 -5.3354 267° West  Level Estimated
08:37AM 68.1936 -5.6361 267° West  Level Estimated
08:38AM 68.1871 -5.9366 267° West  Level Estimated
08:39AM 68.1799 -6.2370 266° West  Level Estimated
08:40AM 68.1723 -6.5372 266° West  Level Estimated
08:41AM 68.1641 -6.8371 266° West  Level Estimated
08:42AM 68.1554 -7.1369 266° West  Level Estimated
08:43AM 68.1461 -7.4364 265° West  Level Estimated
08:44AM 68.1363 -7.7356 265° West  Level Estimated
08:45AM 68.1259 -8.0346 265° West  Level Estimated
08:46AM 68.1151 -8.3333 265° West  Level Estimated
08:47AM 68.1036 -8.6318 264° West  Level Estimated
08:48AM 68.0917 -8.9299 264° West  Level Estimated
08:49AM 68.0791 -9.2277 264° West  Level Estimated
08:50AM 68.0661 -9.5252 263° West  Level Estimated
08:51AM 68.0525 -9.8223 263° West  Level Estimated
08:52AM 68.0384 -10.1191 263° West  Level Estimated
08:53AM 68.0238 -10.4155 263° West  Level Estimated
08:54AM 68.0086 -10.7115 262° West  Level Estimated
08:55AM 67.9929 -11.0071 262° West  Level Estimated
08:56AM 67.9767 -11.3024 262° West  Level Estimated
08:57AM 67.9599 -11.5972 262° West  Level Estimated
08:58AM 67.9426 -11.8915 261° West  Level Estimated
08:59AM 67.9248 -12.1855 261° West  Level Estimated
09:00AM 67.9065 -12.4789 261° West  Level Estimated
09:01AM 67.8876 -12.7719 260° West  Level Estimated
09:02AM 67.8682 -13.0645 260° West  Level Estimated
09:03AM 67.8483 -13.3565 260° West  Level Estimated
09:04AM 67.8279 -13.6480 260° West  Level Estimated
09:05AM 67.8070 -13.9390 259° West  Level Estimated
09:06AM 67.7855 -14.2295 259° West  Level Estimated
09:07AM 67.7635 -14.5194 259° West  Level Estimated
09:08AM 67.7411 -14.8088 259° West  Level Estimated
09:09AM 67.7181 -15.0977 258° West  Level Estimated
09:10AM 67.6946 -15.3859 258° West  Level Estimated
09:11AM 67.6706 -15.6736 258° West  Level Estimated
09:12AM 67.6460 -15.9607 257° West  Level Estimated
09:13AM 67.6210 -16.2472 257° West  Level Estimated
09:14AM 67.5955 -16.5330 257° West  Level Estimated
09:15AM 67.5695 -16.8183 257° West  Level Estimated
09:16AM 67.5429 -17.1029 256° West  Level Estimated
09:17AM 67.5159 -17.3869 256° West  Level Estimated
09:18AM 67.4884 -17.6702 256° West  Level Estimated
09:19AM 67.4604 -17.9529 256° West  Level Estimated
09:20AM 67.4318 -18.2348 255° West  Level Estimated
09:21AM 67.4028 -18.5161 255° West  Level Estimated
09:22AM 67.3734 -18.7967 255° West  Level Estimated
09:23AM 67.3434 -19.0767 255° West  Level Estimated
09:24AM 67.3129 -19.3559 254° West  Level Estimated
09:25AM 67.2820 -19.6344 254° West  Level Estimated
09:26AM 67.2506 -19.9121 254° West  Level Estimated
09:27AM 67.2187 -20.1892 254° West  Level Estimated
09:28AM 67.1863 -20.4655 253° West  Level Estimated
09:29AM 67.1534 -20.7410 253° West  Level Estimated
09:30AM 67.1201 -21.0158 253° West  Level Estimated
09:31AM 67.0863 -21.2899 253° West  Level Estimated
09:32AM 67.0520 -21.5632 252° West  Level Estimated
09:33AM 67.0173 -21.8356 252° West  Level Estimated
09:34AM 66.9821 -22.1073 252° West  Level Estimated
09:35AM 66.9464 -22.3783 252° West  Level Estimated
09:36AM 66.9103 -22.6484 251° West  Level Estimated
09:37AM 66.8737 -22.9177 251° West  Level Estimated
09:38AM 66.8367 -23.1862 251° West  Level Estimated
09:39AM 66.7992 -23.4539 251° West  Level Estimated
09:40AM 66.7613 -23.7208 250° West  Level Estimated
09:41AM 66.7229 -23.9869 250° West  Level Estimated
09:42AM 66.6840 -24.2521 250° West  Level Estimated
09:43AM 66.6448 -24.5165 250° West  Level Estimated
09:44AM 66.6050 -24.7800 249° West  Level Estimated
09:45AM 66.5649 -25.0427 249° West  Level Estimated
09:46AM 66.5243 -25.3045 249° West  Level Estimated
09:47AM 66.4832 -25.5655 249° West  Level Estimated
09:48AM 66.4418 -25.8256 248° West  Level Estimated
09:49AM 66.3999 -26.0849 248° West  Level Estimated
09:50AM 66.3575 -26.3433 248° West  Level Estimated
09:51AM 66.3148 -26.6007 248° West  Level Estimated
09:52AM 66.2716 -26.8574 247° West  Level Estimated
09:53AM 66.2280 -27.1131 247° West  Level Estimated
09:54AM 66.1840 -27.3680 247° West  Level Estimated
09:55AM 66.1395 -27.6219 247° West  Level Estimated
09:56AM 66.0947 -27.8750 246° West  Level Estimated
09:57AM 66.0494 -28.1272 246° West  Level Estimated
09:58AM 66.0037 -28.3785 246° West  Level Estimated
09:59AM 65.9576 -28.6288 246° West  Level Estimated
10:00AM 65.9111 -28.8783 246° West  Level Estimated
10:01AM 65.8642 -29.1269 245° Southwest  Level Estimated
10:02AM 65.8169 -29.3745 245° Southwest  Level Estimated
10:03AM 65.7692 -29.6213 245° Southwest  Level Estimated
10:04AM 65.7212 -29.8671 245° Southwest  Level Estimated
10:05AM 65.6727 -30.1120 244° Southwest  Level Estimated
10:06AM 65.6238 -30.3560 244° Southwest  Level Estimated
10:07AM 65.5745 -30.5991 244° Southwest  Level Estimated
10:08AM 65.5249 -30.8412 244° Southwest  Level Estimated
10:09AM 65.4748 -31.0824 244° Southwest  Level Estimated
10:10AM 65.4244 -31.3227 243° Southwest  Level Estimated
10:11AM 65.3736 -31.5621 243° Southwest  Level Estimated
10:12AM 65.3224 -31.8005 243° Southwest  Level Estimated
10:13AM 65.2709 -32.0380 243° Southwest  Level Estimated
10:14AM 65.2189 -32.2746 242° Southwest  Level Estimated
10:15AM 65.1667 -32.5103 242° Southwest  Level Estimated
10:16AM 65.1140 -32.7450 242° Southwest  Level Estimated
10:17AM 65.0610 -32.9788 242° Southwest  Level Estimated
10:18AM 65.0076 -33.2116 242° Southwest  Level Estimated
10:19AM 64.9538 -33.4436 241° Southwest  Level Estimated
10:20AM 64.8997 -33.6745 241° Southwest  Level Estimated
10:21AM 64.8453 -33.9046 241° Southwest  Level Estimated
10:22AM 64.7904 -34.1337 241° Southwest  Level Estimated
10:23AM 64.7353 -34.3619 241° Southwest  Level Estimated
10:24AM 64.6797 -34.5892 240° Southwest  Level Estimated
10:25AM 64.6239 -34.8155 240° Southwest  Level Estimated
10:26AM 64.5677 -35.0409 240° Southwest  Level Estimated
10:27AM 64.5111 -35.2654 240° Southwest  Level Estimated
10:28AM 64.4542 -35.4889 240° Southwest  Level Estimated
10:29AM 64.3970 -35.7116 239° Southwest  Level Estimated
10:30AM 64.3394 -35.9332 239° Southwest  Level Estimated
10:31AM 64.2815 -36.1540 239° Southwest  Level Estimated
10:32AM 64.2233 -36.3738 239° Southwest  Level Estimated
10:33AM 64.1647 -36.5927 239° Southwest  Level Estimated
10:33AM 67.3600 -44.7010 238° Southwest 432 497 33,000  Level FlightAware
10:33AM 67.2940 -44.8690 225° Southwest 433 498 33,000  Level FlightAware
10:34AM 64.1058 -36.8107 238° Southwest  Level Estimated
10:34AM 67.2340 -45.0190 224° Southwest 433 498 33,000  Level FlightAware
10:35AM 67.1750 -45.1660 224° Southwest 433 498 33,000  Level FlightAware
10:36AM 67.1310 -45.2750 224° Southwest 433 498 33,000  Level FlightAware
10:36AM 67.0870 -45.3850 224° Southwest 433 498 33,000  Level FlightAware
10:37AM 66.9680 -45.6840 225° Southwest 429 494 33,000  Level FlightAware
10:38AM 66.8560 -45.9550 224° Southwest 428 493 33,000  Level FlightAware
10:39AM 66.8050 -46.0790 224° Southwest 428 493 33,000  Level FlightAware
10:40AM 66.7580 -46.1920 224° Southwest 428 493 33,000  Level FlightAware
10:40AM 66.6990 -46.3300 223° Southwest 428 493 33,000  Level FlightAware
10:41AM 66.6530 -46.4390 223° Southwest 428 493 33,000  Level FlightAware
10:41AM 66.6360 -46.4800 224° Southwest 428 493 33,000  Level FlightAware
10:42AM 66.5760 -46.6210 223° Southwest 427 491 33,000  Level FlightAware
10:43AM 66.4830 -46.8300 222° Southwest 427 491 33,000  Level FlightAware
10:43AM 66.4380 -46.9310 222° Southwest 427 491 33,000  Level FlightAware
10:44AM 66.3780 -47.0660 222° Southwest 427 491 33,000  Level FlightAware
10:45AM 66.3330 -47.1670 222° Southwest 427 491 33,000  Level FlightAware
10:45AM 66.2880 -47.2670 222° Southwest 427 491 33,000  Level FlightAware
10:46AM 66.2270 -47.4040 222° Southwest 427 491 33,000  Level FlightAware
10:47AM 66.1670 -47.5380 222° Southwest 427 491 33,000  Level FlightAware
10:48AM 66.1220 -47.6380 222° Southwest 427 491 33,000  Level FlightAware
10:48AM 66.0780 -47.7370 222° Southwest 427 491 33,000  Level FlightAware
10:49AM 66.0330 -47.8370 222° Southwest 427 491 33,000  Level FlightAware
10:49AM 65.9880 -47.9370 222° Southwest 427 491 33,000  Level FlightAware
10:50AM 65.9430 -48.0360 222° Southwest 427 491 33,000  Level FlightAware
10:51AM 65.8830 -48.1680 222° Southwest 427 491 33,000  Level FlightAware
10:51AM 65.8380 -48.2670 222° Southwest 427 491 33,000  Level FlightAware
10:55AM 65.5846 -48.8561 224° Southwest  Level Estimated
10:56AM 65.5001 -49.0488 223° Southwest  Level Estimated
10:57AM 65.4153 -49.2403 223° Southwest  Level Estimated
10:58AM 65.3303 -49.4306 223° Southwest  Level Estimated
10:59AM 65.2451 -49.6196 223° Southwest  Level Estimated
11:00AM 65.1597 -49.8074 223° Southwest  Level Estimated
11:01AM 65.0740 -49.9941 223° Southwest  Level Estimated
11:02AM 64.9881 -50.1795 222° Southwest  Level Estimated
11:03AM 64.9019 -50.3637 222° Southwest  Level Estimated
11:04AM 64.8155 -50.5467 222° Southwest  Level Estimated
11:04AM 64.7160 -51.1610 222° Southwest 424 488 33,000  Level FlightAware
11:05AM 64.7289 -50.7286 222° Southwest  Level Estimated
11:05AM 64.6780 -51.3120 240° Southwest 424 488 33,000  Level FlightAware
11:06AM 64.6330 -51.4930 240° Southwest 425 489 33,000  Level FlightAware
11:07AM 64.5920 -51.6520 239° Southwest 426 490 33,000  Level FlightAware
11:07AM 64.5530 -51.8030 239° Southwest 425 489 33,000  Level FlightAware
11:08AM 64.5230 -51.9200 239° Southwest 425 489 33,000  Level FlightAware
11:08AM 64.4850 -52.0660 239° Southwest 425 489 33,000  Level FlightAware
11:09AM 64.4320 -52.2680 239° Southwest 426 490 33,000  Level FlightAware
11:10AM 64.3950 -52.4080 239° Southwest 426 490 33,000  Level FlightAware
11:10AM 64.3580 -52.5470 238° Southwest 425 489 33,000  Level FlightAware
11:11AM 64.3130 -52.7150 238° Southwest 425 489 33,000  Level FlightAware
11:12AM 64.2600 -52.9110 238° Southwest 426 490 33,000  Level FlightAware
11:13AM 64.2260 -53.0350 238° Southwest 426 490 33,000  Level FlightAware
11:14AM 64.1620 -53.2700 238° Southwest 426 490 33,000  Level FlightAware
11:14AM 64.1290 -53.3940 239° Southwest 426 490 33,000  Level FlightAware
11:15AM 64.1070 -53.4720 237° Southwest 426 490 33,000  Level FlightAware
11:16AM 64.0660 -53.6210 238° Southwest 426 490 33,000  Level FlightAware
11:16AM 64.0340 -53.7410 239° Southwest 426 490 33,000  Level FlightAware
11:17AM 63.9910 -53.8970 238° Southwest 426 490 33,000  Level FlightAware
11:18AM 63.9480 -54.0520 238° Southwest 426 490 33,000  Level FlightAware
11:18AM 63.9150 -54.1750 239° Southwest 426 490 33,000  Level FlightAware
11:19AM 63.8740 -54.3240 238° Southwest 426 490 33,000  Level FlightAware
11:20AM 63.8420 -54.4400 238° Southwest 426 490 33,000  Level FlightAware
11:20AM 63.8080 -54.5620 238° Southwest 426 490 33,000  Level FlightAware
11:21AM 63.7640 -54.7200 238° Southwest 426 490 33,000  Level FlightAware
11:22AM 63.7320 -54.8350 238° Southwest 426 490 33,000  Level FlightAware
11:22AM 63.6500 -55.0833 245° Southwest 410 472 33,000  Level Gander Center
11:23AM 63.5833 -55.3000 235° Southwest 410 472 33,000  Level Gander Center
11:24AM 63.5167 -55.4833 231° Southwest 410 472 33,000  Level Gander Center
11:25AM 63.4865 -55.2533 217° Southwest  Level Estimated
11:25AM 63.4667 -55.7167 244° Southwest 410 472 33,000  Level Gander Center
11:26AM 63.3935 -55.4093 217° Southwest  Level Estimated
11:26AM 63.3833 -55.9167 227° Southwest 410 472 33,000  Level Gander Center
11:27AM 63.2997 -55.5653 236° Southwest  Level Estimated
11:27AM 63.3333 -56.1167 241° Southwest 410 472 33,000  Level Gander Center
11:28AM 63.2491 -55.8002 245° Southwest  Level FlightAware Approximate
11:28AM 63.2667 -56.3167 234° Southwest 410 472 33,000  Level Gander Center
11:29AM 63.2000 -56.5500 238° Southwest 420 483 33,000  Level Gander Center
11:30AM 63.1333 -56.7333 231° Southwest 410 472 33,000  Level Gander Center
11:31AM 63.0500 -56.9333 227° Southwest 410 472 33,000  Level Gander Center
11:32AM 63.0000 -57.1667 245° Southwest 400 460 33,000  Level Gander Center
11:33AM 62.9333 -57.3167 226° Southwest 400 460 33,000  Level Gander Center
11:34AM 62.8667 -57.5333 236° Southwest 420 483 33,000  Level Gander Center
11:35AM 62.8167 -57.7333 241° Southwest 420 483 33,000  Level Gander Center
11:37AM 62.7328 -57.9980 235° Southwest  Level FlightAware Approximate
11:43AM 62.2833 -59.2667 233° Southwest 230 265 33,000  Level Montreal Center
11:44AM 62.2606 -59.4336 235° Southwest  Level FlightAware Approximate
11:44AM 62.2167 -59.4833 237° Southwest 390 449 33,000  Level Montreal Center
11:45AM 62.1919 -59.6350 234° Southwest  Level FlightAware Approximate
11:45AM 62.1667 -59.6667 240° Southwest 400 460 33,000  Level Montreal Center
11:46AM 62.1230 -59.8355 234° Southwest  Level FlightAware Approximate
11:46AM 62.1000 -59.8333 230° Southwest 400 460 33,000  Level Montreal Center
11:47AM 62.0537 -60.0350 234° Southwest  Level FlightAware Approximate
11:47AM 62.0333 -60.0500 237° Southwest 410 472 33,000  Level Montreal Center
11:48AM 61.9842 -60.2337 233° Southwest  Level FlightAware Approximate
11:48AM 61.9667 -60.2333 232° Southwest 400 460 33,000  Level Montreal Center
11:49AM 61.9144 -60.4314 233° Southwest  Level FlightAware Approximate
11:49AM 61.8833 -60.4500 231° Southwest 400 460 33,000  Level Montreal Center
11:50AM 61.8167 -60.6333 232° Southwest 400 460 33,000  Level Montreal Center
11:51AM 61.7500 -60.8167 233° Southwest 400 460 33,000  Level Montreal Center
11:52AM 61.7000 -61.0167 242° Southwest 400 460 33,000  Level Montreal Center
11:53AM 61.6333 -61.2000 233° Southwest 410 472 33,000  Level Montreal Center
11:54AM 61.5667 -61.3667 230° Southwest 400 460 33,000  Level Montreal Center
11:55AM 61.5000 -61.5833 237° Southwest 400 460 33,000  Level Montreal Center
11:56AM 61.4333 -61.7500 230° Southwest 400 460 33,000  Level Montreal Center
11:57AM 61.3667 -61.9167 230° Southwest 390 449 33,000  Level Montreal Center
11:58AM 61.3000 -62.1000 233° Southwest 400 460 33,000  Level Montreal Center
11:59AM 61.2167 -62.3167 231° Southwest 400 460 33,000  Level Montreal Center
12:00PM 61.1500 -62.4833 230° Southwest 400 460 33,000  Level Montreal Center
12:01PM 61.0833 -62.6833 235° Southwest 410 472 33,000  Level Montreal Center
12:02PM 61.0167 -62.8500 231° Southwest 400 460 33,000 180 Level Montreal Center
12:03PM 60.9333 -63.0167 224° Southwest 400 460 33,400 480 Climbing Montreal Center
12:04PM 60.8500 -63.2000 227° Southwest 400 460 34,000 300 Climbing Montreal Center
12:05PM 60.7667 -63.3333 218° Southwest 410 472 34,000  Level Montreal Center
12:06PM 60.6833 -63.5000 224° Southwest 410 472 34,000  Level Montreal Center
12:07PM 60.5833 -63.6500 216° Southwest 410 472 34,000  Level Montreal Center
12:08PM 60.5000 -63.7833 218° Southwest 410 472 34,000  Level Montreal Center
12:09PM 60.4167 -63.9500 225° Southwest 410 472 34,000  Level Montreal Center
12:10PM 60.3167 -64.0833 213° Southwest 410 472 34,000  Level Montreal Center
12:11PM 60.2333 -64.2167 218° Southwest 410 472 34,000  Level Montreal Center
12:12PM 60.1500 -64.3833 225° Southwest 420 483 34,000  Level Montreal Center
12:13PM 60.0500 -64.5167 214° Southwest 420 483 34,000  Level Montreal Center
12:14PM 59.9667 -64.6500 219° Southwest 420 483 34,000  Level Montreal Center
12:15PM 59.8833 -64.8167 225° Southwest 420 483 34,000  Level Montreal Center
12:16PM 59.7833 -64.9500 214° Southwest 410 472 34,000  Level Montreal Center
12:17PM 59.7000 -65.1167 225° Southwest 420 483 34,000  Level Montreal Center
12:18PM 59.6000 -65.2333 211° Southwest 420 483 34,000  Level Montreal Center
12:19PM 59.5167 -65.3667 219° Southwest 420 483 34,000  Level Montreal Center
12:20PM 59.4333 -65.5333 226° Southwest 420 483 34,000  Level Montreal Center
12:21PM 59.3167 -65.6667 210° Southwest 410 472 34,000  Level Montreal Center
12:22PM 59.2333 -65.8167 223° Southwest 410 472 34,000  Level Montreal Center
12:23PM 59.1333 -65.9500 214° Southwest 420 483 34,000  Level Montreal Center
12:24PM 59.0500 -66.0667 216° Southwest 420 483 34,000  Level Montreal Center
12:25PM 58.9500 -66.2333 221° Southwest 420 483 34,000  Level Montreal Center
12:26PM 58.8667 -66.3500 216° Southwest 420 483 34,000  Level Montreal Center
12:27PM 58.7667 -66.4667 211° Southwest 420 483 34,000  Level Montreal Center
12:28PM 58.6833 -66.6333 226° Southwest 420 483 34,000  Level Montreal Center
12:29PM 58.5833 -66.7500 211° Southwest 420 483 34,000  Level Montreal Center
12:30PM 58.5000 -66.9000 223° Southwest 420 483 34,000  Level Montreal Center
12:31PM 58.4000 -67.0167 211° Southwest 420 483 34,000  Level Montreal Center
12:32PM 58.3000 -67.1500 215° Southwest 420 483 34,000  Level Montreal Center
12:33PM 58.2167 -67.3000 224° Southwest 420 483 34,000  Level Montreal Center
12:34PM 58.1167 -67.4167 212° Southwest 420 483 34,000  Level Montreal Center
12:35PM 58.0333 -67.5333 217° Southwest 420 483 34,000  Level Montreal Center
12:36PM 57.9167 -67.6833 214° Southwest 420 483 34,000  Level Montreal Center
12:37PM 57.8333 -67.8333 224° Southwest 420 483 34,000  Level Montreal Center
12:38PM 57.7333 -67.9500 212° Southwest 420 483 34,000  Level Montreal Center
12:39PM 57.6333 -68.0667 212° Southwest 420 483 34,000  Level Montreal Center
12:40PM 57.5500 -68.2000 221° Southwest 420 483 34,000  Level Montreal Center
12:41PM 57.4500 -68.3167 212° Southwest 420 483 34,000  Level Montreal Center
12:42PM 57.3667 -68.4667 224° Southwest 420 483 34,000  Level Montreal Center
12:43PM 57.2667 -68.5833 212° Southwest 430 495 34,000  Level Montreal Center
12:44PM 57.1500 -68.7333 215° Southwest 430 495 34,000  Level Montreal Center
12:45PM 57.0667 -68.8333 213° Southwest 430 495 34,000  Level Montreal Center
12:46PM 56.9667 -68.9833 219° Southwest 430 495 34,000  Level Montreal Center
12:47PM 56.8667 -69.0833 209° Southwest 420 483 34,000 120 Level Montreal Center
12:48PM 56.7833 -69.2000 218° Southwest 420 483 34,300 480 Climbing Montreal Center
12:49PM 56.6833 -69.3333 216° Southwest 420 483 35,000 660 Climbing Montreal Center
12:50PM 56.5833 -69.4500 213° Southwest 430 495 35,700 480 Climbing Montreal Center
12:51PM 56.4833 -69.5833 216° Southwest 430 495 36,000 120 Climbing Montreal Center
12:52PM 56.3833 -69.7333 220° Southwest 430 495 36,000  Level Montreal Center
12:53PM 56.2667 -69.8333 205° Southwest 430 495 36,000  Level Montreal Center
12:54PM 56.1833 -69.9667 222° Southwest 430 495 36,000  Level Montreal Center
12:55PM 56.0833 -70.0833 213° Southwest 430 495 36,000  Level Montreal Center
12:56PM 55.9833 -70.2167 217° Southwest 430 495 36,000  Level Montreal Center
12:57PM 55.8833 -70.3167 209° Southwest 430 495 36,000  Level Montreal Center
12:58PM 55.7833 -70.4500 217° Southwest 430 495 36,000  Level Montreal Center
12:59PM 55.6833 -70.5500 209° Southwest 430 495 36,000  Level Montreal Center
01:00PM 55.5833 -70.6833 217° Southwest 430 495 36,000  Level Montreal Center
01:01PM 55.4833 -70.7833 210° Southwest 430 495 36,000  Level Montreal Center
01:02PM 55.3667 -70.9167 213° Southwest 430 495 36,000  Level Montreal Center
01:03PM 55.2833 -71.0167 214° Southwest 430 495 36,000  Level Montreal Center
01:04PM 55.1833 -71.1500 217° Southwest 440 506 36,000  Level Montreal Center
01:05PM 55.0667 -71.2500 206° Southwest 440 506 36,000  Level Montreal Center
01:06PM 54.9667 -71.3833 217° Southwest 430 495 36,000  Level Montreal Center
01:07PM 54.8500 -71.5167 213° Southwest 440 506 36,000  Level Montreal Center
01:08PM 54.7667 -71.6167 215° Southwest 440 506 36,000  Level Montreal Center
01:09PM 54.6667 -71.7333 214° Southwest 440 506 36,000  Level Montreal Center
01:10PM 54.5500 -71.8333 206° Southwest 450 518 36,000  Level Montreal Center
01:11PM 54.4500 -71.9667 218° Southwest 450 518 36,000  Level Montreal Center
01:12PM 54.3333 -72.1000 214° Southwest 450 518 36,000  Level Montreal Center
01:13PM 54.2333 -72.1833 206° Southwest 440 506 36,000  Level Montreal Center
01:14PM 54.1333 -72.3167 218° Southwest 440 506 36,000  Level Montreal Center
01:15PM 54.0333 -72.4000 206° Southwest 450 518 36,000  Level Montreal Center
01:16PM 53.9167 -72.5333 214° Southwest 440 506 36,000  Level Montreal Center
01:17PM 53.8167 -72.6500 215° Southwest 440 506 36,000  Level Montreal Center
01:18PM 53.7000 -72.7833 214° Southwest 440 506 36,000  Level Montreal Center
01:19PM 53.6000 -72.8667 206° Southwest 450 518 36,000  Level Montreal Center
01:20PM 53.4833 -73.0000 214° Southwest 450 518 36,000  Level Montreal Center
01:21PM 53.3833 -73.1167 215° Southwest 450 518 36,000  Level Montreal Center
01:22PM 53.2667 -73.2000 203° Southwest 450 518 36,000  Level Montreal Center
01:23PM 53.1833 -73.3167 220° Southwest 450 518 36,000  Level Montreal Center
01:24PM 53.0667 -73.4500 214° Southwest 450 518 36,000  Level Montreal Center
01:25PM 52.9667 -73.5333 207° Southwest 450 518 36,000  Level Montreal Center
01:26PM 52.8500 -73.6500 211° Southwest 450 518 36,000  Level Montreal Center
01:27PM 52.7500 -73.7667 215° Southwest 450 518 36,000  Level Montreal Center
01:28PM 52.6333 -73.8500 203° Southwest 450 518 36,000  Level Montreal Center
01:29PM 52.5167 -73.9667 211° Southwest 450 518 36,000  Level Montreal Center
01:30PM 52.4167 -74.0667 211° Southwest 440 506 36,000  Level Montreal Center
01:31PM 52.3000 -74.1667 208° Southwest 440 506 36,000  Level Montreal Center
01:32PM 52.2000 -74.2833 216° Southwest 430 495 36,000  Level Montreal Center
01:33PM 52.1000 -74.3667 207° Southwest 420 483 36,000  Level Montreal Center
01:34PM 52.0000 -74.4667 212° Southwest 430 495 36,000  Level Montreal Center
01:35PM 51.9000 -74.5667 212° Southwest 430 495 36,000  Level Montreal Center
01:36PM 51.7833 -74.6833 212° Southwest 430 495 36,000  Level Montreal Center
01:37PM 51.6833 -74.7667 207° Southwest 430 495 36,000  Level Montreal Center
01:38PM 51.5833 -74.8833 216° Southwest 440 506 36,000  Level Montreal Center
01:39PM 51.4833 -74.9667 207° Southwest 440 506 36,000  Level Montreal Center
01:40PM 51.3667 -75.0833 212° Southwest 440 506 36,000  Level Montreal Center
01:41PM 51.2667 -75.1500 203° Southwest 440 506 36,000  Level Montreal Center
01:42PM 51.1500 -75.2667 212° Southwest 440 506 36,000  Level Montreal Center
01:43PM 51.0500 -75.3833 216° Southwest 440 506 36,000  Level Montreal Center
01:44PM 50.9500 -75.4500 203° Southwest 440 506 36,000  Level Montreal Center
01:45PM 50.8333 -75.5667 212° Southwest 440 506 36,000  Level Montreal Center
01:46PM 50.7333 -75.6500 208° Southwest 440 506 36,000  Level Montreal Center
01:47PM 50.6333 -75.7500 212° Southwest 440 506 36,000  Level Montreal Center
01:48PM 50.5333 -75.8333 208° Southwest 430 495 36,000  Level Montreal Center
01:49PM 50.4167 -75.9333 209° Southwest 430 495 36,000  Level Montreal Center
01:50PM 50.3167 -76.0167 208° Southwest 430 495 36,000  Level Montreal Center
01:51PM 50.2167 -76.1167 213° Southwest 420 483 36,000  Level Montreal Center
01:52PM 50.1167 -76.2000 208° Southwest 420 483 36,000  Level Montreal Center
01:53PM 49.9833 -76.3000 206° Southwest 420 483 36,000  Level Montreal Center
01:54PM 49.9000 -76.3833 213° Southwest 420 483 36,000  Level Montreal Center
01:55PM 49.8000 -76.4667 208° Southwest 420 483 36,000  Level Montreal Center
01:56PM 49.6833 -76.5667 209° Southwest 430 495 36,000  Level Montreal Center
01:57PM 49.5833 -76.6333 203° Southwest 420 483 36,000  Level Montreal Center
01:58PM 49.4833 -76.7500 217° Southwest 430 495 36,000  Level Montreal Center
01:59PM 49.3833 -76.8167 203° Southwest 440 506 36,000  Level Montreal Center
02:00PM 49.2833 -76.9167 213° Southwest 410 472 36,000  Level Montreal Center
02:01PM 49.1833 -77.0000 209° Southwest 420 483 36,000  Level Montreal Center
02:02PM 49.0667 -77.1000 209° Southwest 420 483 36,000  Level Montreal Center
02:03PM 48.9667 -77.1667 204° Southwest 420 483 36,000  Level Montreal Center
02:04PM 48.8833 -77.2500 213° Southwest 420 483 36,000  Level Montreal Center
02:05PM 48.7500 -77.3500 206° Southwest 410 472 36,000  Level Montreal Center
02:06PM 48.6500 -77.4167 204° Southwest 420 483 36,000  Level Montreal Center
02:12PM 48.0780 -77.8770 204° Southwest 425 489 36,000  Level FlightAware
02:12PM 48.0260 -77.9080 202° Southwest 424 488 36,000  Level FlightAware
02:12PM 47.9950 -77.9260 201° Southwest 424 488 36,000  Level FlightAware
02:13PM 47.9140 -77.9730 201° Southwest 424 488 36,000  Level FlightAware
02:14PM 47.8580 -78.0050 201° Southwest 424 488 36,000  Level FlightAware
02:15PM 47.6880 -78.1050 202° Southwest 423 487 36,000  Level FlightAware
02:16PM 47.6290 -78.1390 201° Southwest 422 486 36,000  Level FlightAware
02:16PM 47.5700 -78.1720 201° Southwest 419 482 36,000  Level FlightAware
02:17PM 47.4670 -78.2320 201° Southwest 413 475 36,000  Level FlightAware
02:18PM 47.4060 -78.2660 201° Southwest 412 474 36,000  Level FlightAware
02:18PM 47.3490 -78.2990 201° Southwest 412 474 36,000  Level FlightAware
02:19PM 47.3080 -78.3230 202° Southwest 412 474 36,000  Level FlightAware
02:19PM 47.2390 -78.3620 201° Southwest 413 475 36,000  Level FlightAware
02:20PM 47.1800 -78.3950 201° Southwest 415 478 36,000  Level FlightAware
02:21PM 47.0550 -78.4660 201° Southwest 420 483 36,000  Level FlightAware
02:22PM 46.9900 -78.5020 201° Southwest 426 490 36,000  Level FlightAware
02:22PM 46.9240 -78.5390 201° Southwest 428 493 36,000  Level FlightAware
02:23PM 46.8640 -78.5730 201° Southwest 431 496 36,000  Level FlightAware
02:23PM 46.7990 -78.6100 201° Southwest 429 494 36,000  Level FlightAware
02:24PM 46.7050 -78.6610 200° South 429 494 36,000  Level FlightAware
02:25PM 46.6300 -78.7030 201° Southwest 427 491 36,000  Level FlightAware
02:26PM 46.5060 -78.7710 201° Southwest 425 489 36,000  Level FlightAware
02:26PM 46.4620 -78.7960 201° Southwest 424 488 36,000  Level FlightAware
02:27PM 46.3810 -78.8400 201° Southwest 413 475 36,000  Level FlightAware
02:28PM 46.3210 -78.8730 201° Southwest 407 468 36,000  Level FlightAware
02:28PM 46.2490 -78.9130 201° Southwest 405 466 36,000  Level FlightAware
02:29PM 46.1880 -78.9450 200° South 406 467 36,000  Level FlightAware
02:30PM 46.1320 -78.9760 201° Southwest 405 466 36,000  Level FlightAware
02:30PM 46.0770 -79.0060 201° Southwest 405 466 36,000  Level FlightAware
02:31PM 46.0230 -79.0350 200° South 406 467 36,000  Level FlightAware
02:31PM 45.9570 -79.0700 200° South 404 465 36,000  Level FlightAware
02:32PM 45.9020 -79.1000 201° Southwest 405 466 36,000  Level FlightAware
02:32PM 45.8380 -79.1340 200° South 406 467 36,000  Level FlightAware
02:33PM 45.7920 -79.1600 202° Southwest 406 467 36,000  Level FlightAware
02:34PM 45.7160 -79.2000 200° South 406 467 36,000  Level FlightAware
02:34PM 45.6580 -79.2310 200° South 408 470 36,000  Level FlightAware
02:35PM 45.5980 -79.2630 200° South 409 471 36,000  Level FlightAware
02:36PM 45.5060 -79.3110 200° South 411 473 36,000  Level FlightAware
02:36PM 45.4510 -79.3410 201° Southwest 419 482 36,000  Level FlightAware
02:37PM 45.3890 -79.3740 200° South 426 490 36,000  Level FlightAware
02:37PM 45.3240 -79.4080 200° South 427 491 36,000  Level FlightAware
02:38PM 45.2520 -79.4460 200° South 429 494 36,000  Level FlightAware
02:39PM 45.1350 -79.5070 200° South 428 493 36,000  Level FlightAware
02:40PM 45.0620 -79.5450 200° South 429 494 36,000  Level FlightAware
02:40PM 44.9820 -79.5870 200° South 430 495 36,000  Level FlightAware
02:41PM 44.8710 -79.6440 200° South 430 495 36,000  Level FlightAware
02:42PM 44.7910 -79.6850 200° South 431 496 36,000  Level FlightAware
02:43PM 44.6770 -79.7440 200° South 431 496 36,000  Level FlightAware
02:44PM 44.6220 -79.7730 201° Southwest 431 496 36,000  Level FlightAware
02:45PM 44.5130 -79.8550 208° Southwest 418 481 36,000  Level FlightAware
02:45PM 44.4430 -79.9180 213° Southwest 416 479 36,000  Level FlightAware
02:46PM 44.3900 -79.9660 213° Southwest 418 481 36,000  Level FlightAware
02:46PM 44.3320 -80.0190 213° Southwest 416 479 36,000  Level FlightAware
02:47PM 44.2600 -80.0830 212° Southwest 416 479 36,000  Level FlightAware
02:48PM 44.1570 -80.1740 212° Southwest 416 479 36,000  Level FlightAware
02:49PM 44.0950 -80.2300 213° Southwest 416 479 36,000  Level FlightAware
02:50PM 44.0310 -80.2870 213° Southwest 416 479 36,000  Level FlightAware
02:50PM 43.9740 -80.3370 212° Southwest 416 479 36,000  Level FlightAware
02:51PM 43.8890 -80.4120 212° Southwest 417 480 36,000  Level FlightAware
02:52PM 43.8360 -80.4590 213° Southwest 418 481 36,000  Level FlightAware
02:53PM 43.9692 -80.3411 32° Northeast 418 481 36,000  Level FlightAware ADS-B (CZBA)
02:53PM 43.6520 -80.6190 212° Southwest 418 481 36,000  Level FlightAware
02:54PM 43.5870 -80.6760 212° Southwest 417 480 36,000  Level FlightAware
02:55PM 43.5220 -80.7330 212° Southwest 418 481 36,000  Level FlightAware
02:55PM 43.4650 -80.7820 212° Southwest 417 480 36,000  Level FlightAware
02:56PM 43.3570 -80.8760 212° Southwest 418 481 36,000  Level FlightAware
02:57PM 43.3030 -80.9220 212° Southwest 418 481 36,000  Level FlightAware
02:58PM 43.2380 -80.9780 212° Southwest 417 480 36,000 360 Level FlightAware
02:58PM 43.1940 -81.0150 212° Southwest 418 481 36,400 900 Climbing FlightAware
02:59PM 43.1310 -81.0690 212° Southwest 414 476 37,000 900 Climbing FlightAware
02:59PM 43.0680 -81.1230 212° Southwest 407 468 37,600 780 Climbing FlightAware
03:00PM 43.0080 -81.1670 208° Southwest 411 473 38,000 240 Climbing FlightAware
03:01PM 42.9310 -81.2150 205° Southwest 420 483 38,000  Level FlightAware
03:01PM 42.8690 -81.2540 205° Southwest 422 486 38,000  Level FlightAware
03:02PM 42.7830 -81.3060 204° Southwest 420 483 38,000  Level FlightAware
03:03PM 42.7300 -81.3390 205° Southwest 419 482 38,000  Level FlightAware
03:03PM 42.6700 -81.3760 204° Southwest 419 482 38,000  Level FlightAware
03:04PM 42.5780 -81.4320 204° Southwest 418 481 38,000  Level FlightAware
03:05PM 42.5240 -81.4650 204° Southwest 418 481 38,000  Level FlightAware
03:05PM 42.4600 -81.5040 204° Southwest 417 480 38,000  Level FlightAware
03:06PM 42.3660 -81.5610 204° Southwest 414 476 38,000  Level FlightAware
03:07PM 42.3120 -81.5940 204° Southwest 415 478 38,000  Level FlightAware
03:07PM 42.2450 -81.6340 204° Southwest 414 476 38,000  Level FlightAware
03:08PM 42.1870 -81.6690 204° Southwest 414 476 38,000  Level FlightAware
03:08PM 42.1090 -81.7160 204° Southwest 415 478 38,000  Level FlightAware
03:09PM 42.0480 -81.7530 204° Southwest 422 486 38,000  Level FlightAware
03:10PM 41.9310 -81.8230 204° Southwest 427 491 38,000  Level FlightAware
03:11PM 41.8790 -81.8540 204° Southwest 427 491 38,000  Level FlightAware
03:11PM 41.7970 -81.9030 204° Southwest 426 490 38,000  Level FlightAware
03:12PM 41.6860 -81.9690 204° Southwest 425 489 38,000  Level FlightAware
03:13PM 41.6200 -82.0080 204° Southwest 426 490 38,000  Level FlightAware
03:14PM 41.5480 -82.0500 204° Southwest 425 489 38,000  Level FlightAware
03:14PM 41.4900 -82.0850 204° Southwest 426 490 38,000  Level FlightAware
03:15PM 41.4290 -82.1200 203° Southwest 427 491 38,000  Level FlightAware
03:15PM 41.3790 -82.1490 204° Southwest 428 493 38,000  Level FlightAware
03:16PM 41.3080 -82.1800 198° South 433 498 38,000  Level FlightAware
03:16PM 41.2480 -82.2020 195° South 434 499 38,000  Level FlightAware
03:17PM 41.1750 -82.2280 195° South 433 498 38,000  Level FlightAware
03:18PM 41.1030 -82.2530 195° South 434 499 38,000  Level FlightAware
03:18PM 41.0390 -82.2760 195° South 434 499 38,000  Level FlightAware
03:19PM 40.9600 -82.3040 195° South 433 498 38,000  Level FlightAware
03:19PM 40.8830 -82.3310 195° South 433 498 38,000  Level FlightAware
03:20PM 40.7980 -82.3620 195° South 433 498 38,000  Level FlightAware
03:21PM 40.7440 -82.3810 195° South 433 498 38,000  Level FlightAware
03:21PM 40.6760 -82.4050 195° South 433 498 38,000  Level FlightAware
03:22PM 40.6210 -82.4240 195° South 433 498 38,000  Level FlightAware
03:22PM 40.5570 -82.4460 195° South 434 499 38,000  Level FlightAware
03:23PM 40.4810 -82.4730 195° South 434 499 38,000  Level FlightAware
03:24PM 40.4160 -82.4970 196° South 434 499 38,000  Level FlightAware
03:24PM 40.3520 -82.5200 195° South 434 499 38,000  Level FlightAware
03:25PM 40.2900 -82.5420 195° South 436 502 38,000  Level FlightAware
03:25PM 40.2360 -82.5620 196° South 435 501 38,000  Level FlightAware
03:26PM 40.1740 -82.5840 195° South 435 501 38,000  Level FlightAware
03:26PM 40.0960 -82.6130 196° South 435 501 38,000  Level FlightAware
03:27PM 40.0310 -82.6370 196° South 435 501 38,000  Level FlightAware
03:27PM 39.9590 -82.6640 196° South 436 502 38,000  Level FlightAware
03:28PM 39.8960 -82.6880 196° South 436 502 38,000  Level FlightAware
03:29PM 39.7840 -82.7280 195° South 440 506 38,000  Level FlightAware
03:30PM 39.7020 -82.7370 185° South 449 517 38,000  Level FlightAware
03:30PM 39.6430 -82.7380 181° South 450 518 38,000  Level FlightAware
03:31PM 39.5810 -82.7380 180° South 451 519 38,000  Level FlightAware
03:31PM 39.5060 -82.7380 180° South 451 519 38,000  Level FlightAware
03:32PM 39.4150 -82.7390 180° South 451 519 38,000  Level FlightAware
03:32PM 39.3570 -82.7400 181° South 452 520 38,000  Level FlightAware
03:33PM 39.2190 -82.7420 181° South 453 521 38,000  Level FlightAware
03:34PM 39.1510 -82.7430 181° South 454 522 38,000  Level FlightAware
03:35PM 39.0840 -82.7440 181° South 454 522 38,000  Level FlightAware
03:35PM 38.9880 -82.7460 181° South 455 524 38,000  Level FlightAware
03:36PM 38.9090 -82.7470 181° South 456 525 38,000  Level FlightAware
03:37PM 38.8380 -82.7480 181° South 456 525 38,000  Level FlightAware
03:37PM 38.7140 -82.7500 181° South 457 526 38,000  Level FlightAware
03:38PM 38.5840 -82.7510 180° South 458 527 38,000  Level FlightAware
03:39PM 38.5280 -82.7520 181° South 458 527 38,000  Level FlightAware
03:40PM 38.4510 -82.7530 181° South 459 528 38,000  Level FlightAware
03:40PM 38.3670 -82.7540 181° South 459 528 38,000  Level FlightAware
03:41PM 38.2900 -82.7550 181° South 460 529 38,000  Level FlightAware
03:42PM 38.1044 -82.7579 181° South 462 532 38,000  Level FlightAware ADS-B
03:43PM 38.0282 -82.7588 181° South 463 533 38,000  Level FlightAware ADS-B
03:44PM 37.9230 -82.7600 181° South 464 534 38,000  Level FlightAware
03:44PM 37.8244 -82.7615 181° South 464 534 38,000  Level FlightAware ADS-B
03:45PM 37.7599 -82.7624 181° South 466 536 38,000  Level FlightAware ADS-B
03:46PM 37.6581 -82.7721 184° South 466 536 38,000  Level FlightAware ADS-B
03:46PM 37.6136 -82.7938 201° Southwest 450 518 38,000  Level FlightAware ADS-B
03:46PM 37.5889 -82.8102 208° Southwest 445 512 38,000  Level FlightAware ADS-B
03:47PM 37.5338 -82.8459 207° Southwest 447 514 38,000  Level FlightAware ADS-B
03:48PM 37.4540 -82.8987 208° Southwest 447 514 38,000  Level FlightAware ADS-B
03:48PM 37.3935 -82.9386 208° Southwest 449 517 38,000  Level FlightAware ADS-B
03:49PM 37.3371 -82.9756 208° Southwest 450 518 38,000  Level FlightAware ADS-B
03:49PM 37.2795 -83.0132 207° Southwest 450 518 38,000  Level FlightAware ADS-B
03:50PM 37.2237 -83.0497 208° Southwest 451 519 38,000  Level FlightAware ADS-B
03:50PM 37.1672 -83.0869 208° Southwest 451 519 38,000  Level FlightAware ADS-B
03:51PM 37.1033 -83.1282 207° Southwest 452 520 38,000  Level FlightAware ADS-B
03:51PM 37.0443 -83.1666 207° Southwest 452 520 38,000  Level FlightAware ADS-B
03:52PM 36.9883 -83.2030 207° Southwest 452 520 38,000  Level FlightAware ADS-B
03:52PM 36.9327 -83.2389 207° Southwest 452 520 38,000  Level FlightAware ADS-B
03:53PM 36.8732 -83.2776 207° Southwest 451 519 38,000  Level FlightAware ADS-B
03:53PM 36.8153 -83.3149 207° Southwest 452 520 38,000  Level FlightAware ADS-B
03:54PM 36.7547 -83.3540 207° Southwest 453 521 38,000  Level FlightAware ADS-B
03:54PM 36.6986 -83.3901 207° Southwest 453 521 38,000  Level FlightAware ADS-B
03:55PM 36.6382 -83.4288 207° Southwest 453 521 38,000  Level FlightAware ADS-B
03:55PM 36.5820 -83.4649 207° Southwest 454 522 38,000  Level FlightAware ADS-B
03:56PM 36.5253 -83.5012 207° Southwest 454 522 38,000  Level FlightAware ADS-B
03:56PM 36.4689 -83.5372 207° Southwest 454 522 38,000  Level FlightAware ADS-B
03:57PM 36.4099 -83.5749 207° Southwest 454 522 38,000  Level FlightAware ADS-B
03:57PM 36.3534 -83.6109 207° Southwest 455 524 38,000  Level FlightAware ADS-B
03:58PM 36.2957 -83.6477 207° Southwest 456 525 38,000  Level FlightAware ADS-B
03:59PM 36.2259 -83.6920 207° Southwest 458 527 38,000  Level FlightAware ADS-B
03:59PM 36.1659 -83.7300 207° Southwest 458 527 38,000  Level FlightAware ADS-B
04:00PM 36.1074 -83.7670 207° Southwest 459 528 38,000  Level FlightAware ADS-B
04:00PM 36.0499 -83.8032 207° Southwest 459 528 38,000  Level FlightAware ADS-B
04:01PM 35.9925 -83.8395 207° Southwest 460 529 38,000  Level FlightAware ADS-B
04:01PM 35.9418 -83.8713 207° Southwest 460 529 38,000  Level FlightAware ADS-B
04:02PM 35.8779 -83.9001 200° South 471 542 38,000  Level FlightAware ADS-B
04:02PM 35.8085 -83.9190 192° South 482 555 38,000  Level FlightAware ADS-B
04:03PM 35.7415 -83.9351 191° South 482 555 38,000  Level FlightAware ADS-B
04:03PM 35.6745 -83.9509 191° South 483 556 38,000  Level FlightAware ADS-B
04:04PM 35.6066 -83.9670 191° South 482 555 38,000  Level FlightAware ADS-B
04:04PM 35.5273 -83.9861 191° South 482 555 38,000  Level FlightAware ADS-B
04:05PM 35.4586 -84.0028 191° South 482 555 38,000  Level FlightAware ADS-B
04:05PM 35.3925 -84.0189 191° South 483 556 38,000  Level FlightAware ADS-B
04:06PM 35.3253 -84.0351 191° South 483 556 38,000  Level FlightAware ADS-B
04:06PM 35.2574 -84.0514 191° South 482 555 38,000  Level FlightAware ADS-B
04:07PM 35.1903 -84.0674 191° South 482 555 38,000  Level FlightAware ADS-B
04:08PM 35.0971 -84.0898 191° South 482 555 38,000  Level FlightAware ADS-B
04:08PM 35.0311 -84.1057 191° South 481 554 38,000  Level FlightAware ADS-B
04:09PM 34.9582 -84.1231 191° South 480 552 38,000  Level FlightAware ADS-B
04:09PM 34.8781 -84.1421 191° South 479 551 38,000  Level FlightAware ADS-B
04:10PM 34.8086 -84.1586 191° South 478 550 38,000  Level FlightAware ADS-B
04:10PM 34.7430 -84.1744 191° South 478 550 38,000  Level FlightAware ADS-B
04:11PM 34.6701 -84.1916 191° South 477 549 38,000  Level FlightAware ADS-B
04:12PM 34.5558 -84.2184 191° South 476 548 38,000  Level FlightAware ADS-B
04:12PM 34.4910 -84.2338 191° South 477 549 38,000  Level FlightAware ADS-B
04:13PM 34.4256 -84.2492 191° South 477 549 38,000  Level FlightAware ADS-B
04:13PM 34.3537 -84.2661 191° South 477 549 38,000  Level FlightAware ADS-B
04:14PM 34.2345 -84.2941 191° South 478 550 38,000  Level FlightAware ADS-B
04:15PM 34.1510 -84.3140 191° South 478 550 38,000  Level FlightAware
04:16PM 33.9576 -84.3588 191° South 484 557 38,000  Level FlightAware ADS-B
04:17PM 33.8876 -84.3751 191° South 485 558 38,000  Level FlightAware ADS-B
04:17PM 33.8215 -84.3903 191° South 485 558 38,000  Level FlightAware ADS-B
04:18PM 33.7522 -84.4064 191° South 486 559 38,000  Level FlightAware ADS-B
04:18PM 33.6743 -84.4244 191° South 488 562 38,000  Level FlightAware ADS-B
04:19PM 33.6167 -84.4326 187° South 497 572 38,000  Level FlightAware ADS-B
04:19PM 33.5400 -84.4338 181° South 504 580 38,000  Level FlightAware ADS-B
04:20PM 33.4521 -84.4318 179° South 506 582 38,000  Level FlightAware ADS-B
04:21PM 33.3680 -84.4300 179° South 505 581 38,000  Level FlightAware
04:22PM 33.2330 -84.4270 179° South 505 581 38,000  Level FlightAware
04:22PM 33.1370 -84.4250 179° South 505 581 38,000  Level FlightAware
04:23PM 33.0220 -84.4220 179° South 505 581 38,000  Level FlightAware
04:24PM 32.9480 -84.4210 179° South 504 580 38,000  Level FlightAware
04:24PM 32.8660 -84.4190 179° South 504 580 38,000  Level FlightAware
04:25PM 32.8130 -84.4180 179° South 504 580 38,000  Level FlightAware
04:25PM 32.7400 -84.4170 179° South 504 580 38,000  Level FlightAware
04:26PM 32.6640 -84.4150 179° South 504 580 38,000  Level FlightAware
04:26PM 32.6170 -84.4140 179° South 504 580 38,000  Level FlightAware
04:28PM 32.4500 -84.4110 179° South 504 580 38,000  Level FlightAware
04:28PM 32.4030 -84.4100 179° South 504 580 38,000  Level FlightAware
04:29PM 32.2260 -84.4060 179° South 500 575 38,000  Level FlightAware
04:30PM 32.1070 -84.4040 179° South 498 573 38,000  Level FlightAware
04:30PM 32.0290 -84.4030 179° South 497 572 38,000  Level FlightAware
04:31PM 31.9290 -84.4010 179° South 496 571 38,000  Level FlightAware
04:32PM 31.8340 -84.3990 179° South 496 571 38,000  Level FlightAware
04:32PM 31.7590 -84.3970 179° South 496 571 38,000  Level FlightAware
04:33PM 31.6510 -84.3950 179° South 496 571 38,000  Level FlightAware
04:34PM 31.5760 -84.3940 179° South 496 571 38,000  Level FlightAware
04:35PM 31.4220 -84.3910 179° South 498 573 38,000  Level FlightAware
04:35PM 31.3500 -84.3890 179° South 498 573 38,000  Level FlightAware
04:36PM 31.2580 -84.3870 179° South 498 573 38,000  Level FlightAware
04:37PM 31.1069 -84.3844 179° South 499 574 38,000  Level FlightAware ADS-B (KTLH)
04:38PM 31.0948 -84.3842 179° South 501 577 38,000  Level FlightAware ADS-B (KTLH)
04:38PM 30.9301 -84.3810 179° South 501 577 38,000 -120 Level FlightAware ADS-B (KTLH)
04:39PM 30.8548 -84.3796 179° South 503 579 37,900 -540 Descending FlightAware ADS-B (KTLH)
04:39PM 30.7815 -84.3782 179° South 502 578 37,500 -600 Descending FlightAware ADS-B (KTLH)
04:40PM 30.7121 -84.3768 179° South 498 573 37,300 -540 Descending FlightAware ADS-B (KTLH)
04:40PM 30.6433 -84.3754 179° South 494 568 37,000 -360 Descending FlightAware ADS-B (KTLH)
04:41PM 30.6031 -84.3743 179° South 492 566 37,000  Level FlightAware ADS-B (KTLH)
04:41PM 30.5766 -84.3704 173° South 502 578 37,000  Level FlightAware ADS-B (KTLH)
04:41PM 30.5291 -84.3535 163° South 513 590 37,000  Level FlightAware ADS-B (KTLH)
04:42PM 30.4480 -84.3046 153° Southeast 520 598 37,000  Level FlightAware ADS-B (KTLH)
04:42PM 30.3836 -84.2619 150° Southeast 521 600 37,000  Level FlightAware ADS-B (KTLH)
04:43PM 30.3346 -84.2292 150° Southeast 523 602 37,000  Level FlightAware ADS-B (KTLH)
04:43PM 30.2606 -84.1800 150° Southeast 525 604 37,000  Level FlightAware ADS-B (KTLH)
04:44PM 30.2053 -84.1436 150° Southeast 526 605 37,000  Level FlightAware ADS-B (KTLH)
04:44PM 30.1379 -84.0996 151° Southeast 527 606 37,000  Level FlightAware ADS-B (KTLH)
04:45PM 30.0886 -84.0675 151° Southeast 528 608 37,000  Level FlightAware ADS-B (KTLH)
04:46PM 29.9141 -83.9546 151° Southeast 529 609 37,000  Level FlightAware ADS-B (KTLH)
04:47PM 29.8804 -83.9327 151° Southeast 529 609 37,000  Level FlightAware ADS-B (KTLH)
04:47PM 29.7590 -83.8540 151° Southeast 529 609 37,000  Level FlightAware
04:48PM 29.6210 -83.7650 151° Southeast 523 602 37,000  Level FlightAware
04:49PM 29.5220 -83.7010 151° Southeast 512 589 37,000  Level FlightAware
04:50PM 29.4530 -83.6580 152° Southeast 508 585 37,000  Level FlightAware
04:50PM 29.3790 -83.6100 151° Southeast 508 585 37,000  Level FlightAware
04:51PM 29.3120 -83.5680 151° Southeast 508 585 37,000  Level FlightAware
04:51PM 29.2440 -83.5240 151° Southeast 507 583 37,000  Level FlightAware
04:52PM 29.1650 -83.4740 151° Southeast 506 582 37,000  Level FlightAware
04:52PM 29.0920 -83.4270 151° Southeast 506 582 37,000  Level FlightAware
04:53PM 29.0160 -83.3790 151° Southeast 507 583 37,000  Level FlightAware
04:54PM 28.8890 -83.2990 151° Southeast 508 585 37,000  Level FlightAware
04:55PM 28.8330 -83.2630 151° Southeast 508 585 37,000  Level FlightAware
04:55PM 28.7480 -83.2090 151° Southeast 508 585 37,000  Level FlightAware
04:56PM 28.6840 -83.1690 151° Southeast 508 585 37,000  Level FlightAware
04:56PM 28.6060 -83.1200 151° Southeast 507 583 37,000  Level FlightAware
04:57PM 28.5470 -83.0830 151° Southeast 507 583 37,000  Level FlightAware
04:58PM 28.4350 -83.0130 151° Southeast 506 582 37,000  Level FlightAware
04:58PM 28.3520 -82.9610 151° Southeast 506 582 37,000  Level FlightAware
04:59PM 28.2890 -82.9210 151° Southeast 506 582 37,000  Level FlightAware
05:00PM 28.2220 -82.8790 151° Southeast 504 580 37,000  Level FlightAware
05:00PM 28.1420 -82.8290 151° Southeast 504 580 37,000  Level FlightAware
05:01PM 28.0760 -82.7890 152° Southeast 504 580 37,000  Level FlightAware
05:01PM 27.9990 -82.7410 151° Southeast 503 579 37,000  Level FlightAware
05:02PM 27.9250 -82.6960 152° Southeast 499 574 37,000  Level FlightAware
05:03PM 27.7900 -82.6390 160° South 493 567 37,000  Level FlightAware
05:03PM 27.7290 -82.6130 159° South 492 566 37,000  Level FlightAware
05:04PM 27.6350 -82.5740 160° South 491 565 37,000  Level FlightAware
05:05PM 27.5630 -82.5430 159° South 491 565 37,000  Level FlightAware
05:06PM 27.4220 -82.4840 160° South 489 563 37,000  Level FlightAware
05:07PM 27.3090 -82.4360 159° South 489 563 37,000  Level FlightAware
05:07PM 27.2410 -82.4080 160° South 489 563 37,000  Level FlightAware
05:08PM 27.1060 -82.3510 159° South 489 563 37,000  Level FlightAware
05:09PM 27.0400 -82.3230 159° South 489 563 37,000  Level FlightAware
05:09PM 26.9770 -82.2980 161° South 488 562 37,000  Level FlightAware
05:10PM 26.8400 -82.2410 160° South 487 560 37,000  Level FlightAware
05:11PM 26.7630 -82.2090 160° South 487 560 37,000  Level FlightAware
05:12PM 26.6830 -82.1760 160° South 480 552 37,000  Level FlightAware
05:12PM 26.6190 -82.1490 159° South 480 552 37,000  Level FlightAware
05:13PM 26.5430 -82.1120 156° South 494 568 37,000  Level FlightAware
05:14PM 26.4210 -82.0380 151° Southeast 494 568 37,000  Level FlightAware
05:14PM 26.3540 -81.9990 152° Southeast 494 568 37,000  Level FlightAware
05:15PM 26.2750 -81.9530 152° Southeast 493 567 37,000  Level FlightAware
05:16PM 26.1960 -81.9080 153° Southeast 492 566 37,000  Level FlightAware
05:16PM 26.1020 -81.8550 153° Southeast 491 565 37,000  Level FlightAware
05:17PM 25.9900 -81.7910 153° Southeast 490 564 37,000  Level FlightAware
05:18PM 25.9290 -81.7570 153° Southeast 490 564 37,000  Level FlightAware
05:18PM 25.8730 -81.7250 153° Southeast 488 562 37,000  Level FlightAware
05:19PM 25.8090 -81.6890 153° Southeast 487 560 37,000  Level FlightAware
05:20PM 25.6900 -81.6220 153° Southeast 486 559 37,000  Level FlightAware
05:20PM 25.6190 -81.5820 153° Southeast 484 557 37,000  Level FlightAware
05:21PM 25.5460 -81.5560 162° South 456 525 37,000  Level FlightAware
05:22PM 25.4660 -81.5620 184° South 436 502 37,000  Level FlightAware
05:22PM 25.3960 -81.6020 207° Southwest 412 474 37,000  Level FlightAware
05:23PM 25.3360 -81.6420 211° Southwest 417 480 37,000  Level FlightAware
05:24PM 25.2370 -81.7080 211° Southwest 416 479 37,000  Level FlightAware
05:25PM 25.1390 -81.7730 211° Southwest 416 479 37,000  Level FlightAware
05:25PM 25.0880 -81.8070 211° Southwest 416 479 37,000  Level FlightAware
05:26PM 24.9980 -81.8670 211° Southwest 416 479 37,000  Level FlightAware
05:27PM 24.9160 -81.9200 210° Southwest 416 479 37,000  Level FlightAware
05:28PM 24.8490 -81.9650 211° Southwest 416 479 37,000 -120 Level FlightAware
05:29PM 24.7600 -82.0230 211° Southwest 414 476 36,900 -360 Descending FlightAware
05:29PM 24.7090 -82.0560 210° Southwest 410 472 36,500 -1,140 Descending FlightAware
05:30PM 24.6680 -82.0830 211° Southwest 399 459 35,900 -1,500 Descending FlightAware
05:30PM 24.6060 -82.1240 211° Southwest 398 458 34,900 -1,560 Descending FlightAware
05:31PM 24.5260 -82.1760 211° Southwest 398 458 33,600 -1,920 Descending FlightAware
05:32PM 24.4580 -82.2210 211° Southwest 396 456 32,000 -2,220 Descending FlightAware
05:33PM 24.3570 -82.2870 211° Southwest 393 452 29,800 -2,160 Descending FlightAware
05:34PM 24.2930 -82.3290 211° Southwest 394 453 28,300 -1,320 Descending FlightAware
05:34PM 24.2550 -82.3530 210° Southwest 394 453 28,300 -1,920 Level FlightAware
05:34PM 24.2230 -82.3740 211° Southwest 383 441 26,800 -4,740 Descending FlightAware
05:38PM 23.8973 -82.5020 173° South  Level FlightAware Approximate
05:39PM 23.7823 -82.4856 173° South  Level FlightAware Approximate
05:40PM 23.6669 -82.4734 175° South  Level FlightAware Approximate
05:41PM 23.5517 -82.4592 172° South  Level FlightAware Approximate
05:42PM 23.4369 -82.4416 172° South  Level FlightAware Approximate
05:43PM 23.3215 -82.4316 173° South  Level FlightAware Approximate
05:44PM 23.2065 -82.4167 180° South  Level FlightAware Approximate
05:45PM 23.0912 -82.4082 170° South  Level FlightAware Approximate
05:46PM 22.9891 -82.4091 180° South  Level Estimated
05:47PM 22.9891 -82.4091 180° South  Level Estimated
05:48PM 22.9891 -82.4091 180° South  Level Estimated
05:49PM 22.9891 -82.4091 180° South  Level Estimated
05:50PM 22.9891 -82.4091 180° South  Level Estimated
05:51PM 22.9891 -82.4091 180° South  Level Estimated
05:52PM 22.9891 -82.4091 180° South  Level Estimated
05:53PM 22.9891 -82.4091 180° South  Level Estimated
05:54PM 22.9891 -82.4091 180° South  Level Estimated
05:55PM 22.9891 -82.4091 180° South  Level Estimated
05:56PM 22.9891 -82.4091 180° South  Level Estimated
05:57PM 22.9891 -82.4091 180° South  Level Estimated
05:58PM 22.9891 -82.4091 180° South  Level Estimated
05:59PM 22.9891 -82.4091 180° South  Level Estimated
06:00PM 22.9891 -82.4091 180° South  Level Estimated
06:01PM 22.9891 -82.4091 180° South  Level Estimated
06:02PM 22.9891 -82.4091 180° South  Level Estimated
06:03PM 22.9891 -82.4091 180° South  Level Estimated
06:04PM 22.9891 -82.4091 180° South  Level Estimated
06:05PM 22.9891 -82.4091 180° South  Level Estimated
06:06PM 22.9891 -82.4091 180° South  Level Estimated
06:07PM 22.9891 -82.4091 180° South  Level Estimated
06:08PM 22.9891 -82.4091 180° South  Level Estimated